Time;durP1;ratioP1;P1;durP2;ratioP2;P2;SDS_P1;SDS_P2;PMS_P1;PMS_P2;Temp;Humidity;BMP_temperature;BMP_pressure;BME280_temperature;BME280_humidity;BME280_pressure;Samples;Min_cycle;Max_cycle;Signal;HPM_P1;HPM_P2
2020/12/25 00:00:23;;;;;;;1.17;1.00;;;4.50;99.90;;;;;;5015640;28;20036;-86
2020/12/25 00:02:49;;;;;;;0.93;0.90;;;4.50;99.90;;;;;;5012018;28;20113;-86
2020/12/25 00:05:14;;;;;;;1.50;1.00;;;4.40;99.90;;;;;;5033203;28;20029;-86
2020/12/25 00:07:40;;;;;;;1.10;1.00;;;4.40;99.90;;;;;;5012307;28;20029;-86
2020/12/25 00:10:06;;;;;;;1.23;1.00;;;4.30;99.90;;;;;;5031527;28;20022;-86
2020/12/25 00:12:31;;;;;;;1.10;1.00;;;4.20;99.90;;;;;;5033175;28;20098;-86
2020/12/25 00:14:57;;;;;;;1.80;0.97;;;4.30;99.90;;;;;;5032750;28;20087;-86
2020/12/25 00:17:22;;;;;;;2.10;1.00;;;4.30;99.90;;;;;;5033327;28;20437;-86
2020/12/25 00:19:48;;;;;;;0.90;0.90;;;4.20;99.90;;;;;;5033305;28;20535;-86
2020/12/25 00:22:13;;;;;;;0.90;0.90;;;4.20;99.90;;;;;;5033387;28;20029;-86
2020/12/25 00:24:40;;;;;;;0.90;0.90;;;4.30;99.90;;;;;;5033437;28;20104;-86
2020/12/25 00:27:06;;;;;;;0.90;0.90;;;4.20;99.90;;;;;;5032968;28;20413;-86
2020/12/25 00:29:31;;;;;;;2.10;1.00;;;4.20;99.90;;;;;;5032800;28;20105;-86
2020/12/25 00:31:57;;;;;;;0.90;0.90;;;4.20;99.90;;;;;;5032939;28;20514;-86
2020/12/25 00:34:22;;;;;;;1.63;1.00;;;4.20;99.90;;;;;;5011859;28;20068;-86
2020/12/25 00:36:48;;;;;;;0.90;0.90;;;4.10;99.90;;;;;;5026746;28;20030;-86
2020/12/25 00:39:15;;;;;;;1.17;1.07;;;4.20;99.90;;;;;;5030644;28;20028;-86
2020/12/25 00:41:46;;;;;;;1.20;1.10;;;4.10;99.90;;;;;;5032341;28;20029;-86
2020/12/25 00:44:12;;;;;;;1.00;1.00;;;4.20;99.90;;;;;;5032456;28;20053;-86
2020/12/25 00:46:39;;;;;;;1.20;1.10;;;4.10;99.90;;;;;;5014689;28;20028;-86
2020/12/25 00:49:05;;;;;;;1.20;1.10;;;4.10;99.90;;;;;;5032702;28;20024;-86
2020/12/25 00:51:30;;;;;;;1.37;1.20;;;4.20;99.90;;;;;;5032586;28;20030;-86
2020/12/25 00:53:56;;;;;;;1.70;1.30;;;4.10;99.90;;;;;;5032400;28;20033;-86
2020/12/25 00:56:21;;;;;;;1.20;1.10;;;4.10;99.90;;;;;;5032319;28;20133;-86
2020/12/25 00:58:47;;;;;;;1.30;1.20;;;4.10;99.90;;;;;;5032739;28;20025;-86
2020/12/25 01:01:14;;;;;;;1.47;1.27;;;4.10;99.90;;;;;;5032800;28;20470;-86
2020/12/25 01:03:41;;;;;;;1.30;1.20;;;4.10;99.90;;;;;;5032375;28;20033;-86
2020/12/25 01:06:18;;;;;;;1.20;1.10;;;4.10;99.90;;;;;;5032193;28;20045;-86
2020/12/25 01:08:48;;;;;;;1.20;1.10;;;4.10;99.90;;;;;;5001897;28;20028;-86
2020/12/25 01:11:14;;;;;;;1.37;1.17;;;4.10;99.90;;;;;;5032095;28;20092;-86
2020/12/25 01:13:41;;;;;;;1.90;1.30;;;4.10;99.90;;;;;;5031999;28;20137;-86
2020/12/25 01:16:10;;;;;;;1.30;1.20;;;4.10;99.90;;;;;;5032205;28;20394;-87
2020/12/25 01:18:36;;;;;;;1.30;1.10;;;4.20;99.90;;;;;;5032170;28;20126;-86
2020/12/25 01:21:03;;;;;;;1.50;1.40;;;4.10;99.90;;;;;;5011673;28;20072;-86
2020/12/25 01:23:28;;;;;;;1.50;1.20;;;4.10;99.90;;;;;;5028445;28;20470;-86
2020/12/25 01:25:54;;;;;;;1.40;1.30;;;4.10;99.90;;;;;;5031708;28;20025;-86
2020/12/25 01:28:20;;;;;;;1.40;1.30;;;4.10;99.90;;;;;;5031774;28;20059;-86
2020/12/25 01:30:45;;;;;;;1.70;1.60;;;4.00;99.90;;;;;;5031959;28;20176;-86
2020/12/25 01:33:11;;;;;;;1.50;1.40;;;4.00;99.90;;;;;;5032259;28;20032;-86
2020/12/25 01:35:37;;;;;;;1.60;1.50;;;4.00;99.90;;;;;;5031629;28;20079;-86
2020/12/25 01:38:04;;;;;;;1.60;1.47;;;4.00;99.90;;;;;;5031858;28;20126;-86
2020/12/25 01:40:30;;;;;;;1.70;1.50;;;3.90;99.90;;;;;;5031772;28;20029;-86
2020/12/25 01:42:56;;;;;;;1.70;1.60;;;4.10;99.90;;;;;;5031880;28;20036;-86
2020/12/25 01:45:22;;;;;;;2.20;1.60;;;4.10;99.90;;;;;;5031785;28;20034;-86
2020/12/25 01:47:48;;;;;;;2.27;1.60;;;4.10;99.90;;;;;;5031912;28;20041;-86
2020/12/25 01:50:14;;;;;;;1.90;1.70;;;4.00;99.90;;;;;;5003420;28;20348;-86
2020/12/25 01:52:40;;;;;;;3.00;1.97;;;4.10;99.90;;;;;;5024596;28;20022;-86
2020/12/25 01:55:08;;;;;;;2.30;2.00;;;4.10;99.90;;;;;;5020907;28;20120;-86
2020/12/25 01:57:34;;;;;;;2.20;1.90;;;4.10;99.90;;;;;;5031205;28;20028;-76
2020/12/25 02:00:01;;;;;;;2.53;1.90;;;4.00;99.90;;;;;;5031531;28;20112;-76
2020/12/25 02:02:28;;;;;;;2.10;1.90;;;4.10;99.90;;;;;;5031276;28;20370;-76
2020/12/25 02:04:54;;;;;;;2.20;2.00;;;4.10;99.90;;;;;;5031510;28;20347;-76
2020/12/25 02:07:20;;;;;;;2.10;1.90;;;4.10;99.90;;;;;;5013746;28;20028;-76
2020/12/25 02:09:45;;;;;;;2.57;2.30;;;4.10;99.90;;;;;;5031180;28;20025;-76
2020/12/25 02:12:11;;;;;;;2.20;2.00;;;4.20;99.90;;;;;;5031098;28;20028;-76
2020/12/25 02:14:37;;;;;;;2.40;2.20;;;4.20;99.90;;;;;;5023256;28;20088;-76
2020/12/25 02:17:02;;;;;;;2.50;2.30;;;4.20;99.90;;;;;;5031265;28;20037;-76
2020/12/25 02:19:28;;;;;;;2.30;2.10;;;4.20;99.90;;;;;;5030986;28;20091;-76
2020/12/25 02:21:53;;;;;;;2.90;2.37;;;4.30;99.90;;;;;;5023904;28;20025;-75
2020/12/25 02:24:19;;;;;;;3.07;2.40;;;4.20;99.90;;;;;;5031416;28;20374;-76
2020/12/25 02:26:44;;;;;;;2.60;2.40;;;4.20;99.90;;;;;;5013384;28;20017;-76
2020/12/25 02:29:10;;;;;;;2.87;2.57;;;4.30;99.90;;;;;;5017282;28;20489;-76
2020/12/25 02:31:36;;;;;;;2.80;2.40;;;4.30;99.90;;;;;;5020620;28;20065;-76
2020/12/25 02:34:01;;;;;;;3.00;2.70;;;4.30;99.90;;;;;;5027831;28;20022;-76
2020/12/25 02:36:27;;;;;;;3.00;2.47;;;4.40;99.90;;;;;;5023077;28;20331;-76
2020/12/25 02:38:52;;;;;;;2.93;2.37;;;4.40;99.90;;;;;;5029578;28;20028;-76
2020/12/25 02:41:18;;;;;;;3.10;2.80;;;4.30;99.90;;;;;;5035126;28;20490;-76
2020/12/25 02:43:43;;;;;;;2.60;2.40;;;4.40;99.90;;;;;;5012860;28;20475;-76
2020/12/25 02:46:09;;;;;;;2.27;2.07;;;4.40;99.90;;;;;;5011418;28;20029;-76
2020/12/25 02:48:35;;;;;;;2.07;1.80;;;4.40;99.90;;;;;;5025224;28;20036;-76
2020/12/25 02:51:01;;;;;;;2.10;1.80;;;4.30;99.90;;;;;;5034479;28;20026;-76
2020/12/25 02:53:26;;;;;;;2.20;2.00;;;4.20;99.90;;;;;;5034506;28;20071;-76
2020/12/25 02:55:52;;;;;;;1.83;1.73;;;4.10;99.90;;;;;;5024444;28;20036;-76
2020/12/25 02:58:18;;;;;;;1.40;1.30;;;4.00;99.90;;;;;;5020709;28;20028;-76
2020/12/25 03:00:43;;;;;;;1.20;1.10;;;4.00;99.90;;;;;;5034621;28;20045;-76
2020/12/25 03:03:09;;;;;;;1.40;1.30;;;3.90;99.90;;;;;;5034242;28;20024;-76
2020/12/25 03:05:34;;;;;;;1.40;1.30;;;3.80;99.90;;;;;;5034249;28;20026;-76
2020/12/25 03:08:00;;;;;;;1.87;1.40;;;3.70;99.90;;;;;;5034142;28;20029;-76
2020/12/25 03:10:25;;;;;;;1.40;1.30;;;3.60;99.90;;;;;;5026609;28;20105;-76
2020/12/25 03:12:51;;;;;;;1.77;1.53;;;3.50;99.90;;;;;;5010188;28;20045;-76
2020/12/25 03:15:16;;;;;;;1.60;1.50;;;3.40;99.90;;;;;;5029461;28;20206;-76
2020/12/25 03:17:42;;;;;;;1.20;1.10;;;3.40;99.90;;;;;;5013390;28;20438;-77
2020/12/25 03:20:07;;;;;;;1.70;1.20;;;3.30;99.90;;;;;;5010360;28;20022;-76
2020/12/25 03:22:33;;;;;;;1.20;1.10;;;3.20;99.90;;;;;;5023886;28;20033;-76
2020/12/25 03:24:58;;;;;;;1.30;1.20;;;3.10;99.90;;;;;;5034286;28;20030;-75
2020/12/25 03:27:24;;;;;;;1.30;1.20;;;3.10;99.90;;;;;;5013088;28;20045;-75
2020/12/25 03:29:49;;;;;;;1.67;1.07;;;3.10;99.90;;;;;;5026709;28;20029;-75
2020/12/25 03:32:15;;;;;;;2.50;1.20;;;3.00;99.90;;;;;;5033670;28;20021;-75
2020/12/25 03:34:40;;;;;;;1.13;1.03;;;2.90;99.90;;;;;;5034233;28;20108;-75
2020/12/25 03:37:06;;;;;;;1.20;1.10;;;2.80;99.90;;;;;;5019680;28;20093;-76
2020/12/25 03:39:31;;;;;;;1.43;1.10;;;2.80;99.90;;;;;;5033578;28;20037;-76
2020/12/25 03:41:57;;;;;;;1.67;1.10;;;2.80;99.90;;;;;;5033329;28;20022;-76
2020/12/25 03:44:22;;;;;;;1.10;1.00;;;2.70;99.90;;;;;;5020219;28;20018;-76
2020/12/25 03:46:48;;;;;;;2.13;1.00;;;2.60;99.90;;;;;;5033738;28;20056;-76
2020/12/25 03:49:13;;;;;;;1.27;1.17;;;2.60;99.90;;;;;;5032638;28;20017;-76
2020/12/25 03:51:39;;;;;;;1.57;1.10;;;2.50;99.90;;;;;;5033841;28;20116;-76
2020/12/25 03:54:04;;;;;;;1.20;1.10;;;2.50;99.90;;;;;;5031135;28;20041;-76
2020/12/25 03:56:30;;;;;;;0.90;0.90;;;2.40;99.90;;;;;;5022025;28;20083;-76
2020/12/25 03:58:56;;;;;;;1.40;1.10;;;2.40;99.90;;;;;;5033452;28;20029;-76
2020/12/25 04:01:21;;;;;;;1.20;1.10;;;2.30;99.90;;;;;;5015924;28;20447;-76
2020/12/25 04:03:47;;;;;;;1.80;1.10;;;2.30;99.90;;;;;;5033371;28;20025;-76
2020/12/25 04:06:13;;;;;;;1.17;1.00;;;2.20;99.90;;;;;;5029206;28;20716;-76
2020/12/25 04:08:38;;;;;;;1.20;1.10;;;2.20;99.90;;;;;;5005929;28;20483;-76
2020/12/25 04:11:05;;;;;;;1.10;1.00;;;2.10;99.90;;;;;;5032933;28;20032;-76
2020/12/25 04:13:31;;;;;;;1.20;1.10;;;2.10;99.90;;;;;;5032485;28;20049;-76
2020/12/25 04:16:03;;;;;;;1.17;1.07;;;2.10;99.90;;;;;;5032892;28;20025;-76
2020/12/25 04:18:30;;;;;;;1.20;1.10;;;2.10;99.90;;;;;;5020561;28;20029;-76
2020/12/25 04:20:59;;;;;;;1.73;1.20;;;2.10;99.90;;;;;;5033309;28;20052;-76
2020/12/25 04:23:27;;;;;;;1.40;1.20;;;2.10;99.90;;;;;;5018827;28;20079;-76
2020/12/25 04:25:53;;;;;;;1.40;1.20;;;2.10;99.90;;;;;;5032772;28;20039;-76
2020/12/25 04:28:19;;;;;;;1.40;1.30;;;2.00;99.90;;;;;;5032282;28;20029;-76
2020/12/25 04:30:44;;;;;;;1.50;1.20;;;2.10;99.90;;;;;;5014715;28;20018;-76
2020/12/25 04:33:10;;;;;;;1.50;1.40;;;2.10;99.90;;;;;;5032955;28;20059;-77
2020/12/25 04:35:35;;;;;;;1.47;1.37;;;2.00;99.90;;;;;;5032406;28;20518;-77
2020/12/25 04:38:01;;;;;;;1.30;1.20;;;2.00;99.90;;;;;;5032618;28;20026;-76
2020/12/25 04:40:26;;;;;;;1.47;1.20;;;1.90;99.90;;;;;;5032825;28;20021;-76
2020/12/25 04:42:54;;;;;;;1.93;1.40;;;1.90;99.90;;;;;;5033002;28;20029;-76
2020/12/25 04:45:21;;;;;;;1.27;1.17;;;1.90;99.90;;;;;;5014728;28;20540;-76
2020/12/25 04:47:47;;;;;;;1.20;1.10;;;1.90;99.90;;;;;;5026444;28;20022;-76
2020/12/25 04:50:13;;;;;;;2.17;1.30;;;1.80;99.90;;;;;;5024568;28;20021;-78
2020/12/25 04:52:39;;;;;;;1.30;1.20;;;1.80;99.90;;;;;;5031750;28;20036;-78
2020/12/25 04:55:06;;;;;;;1.57;1.40;;;1.80;99.90;;;;;;5031546;28;20033;-78
2020/12/25 04:57:31;;;;;;;1.50;1.30;;;1.60;99.90;;;;;;5013660;28;20083;-78
2020/12/25 04:59:57;;;;;;;1.50;1.40;;;1.60;99.90;;;;;;5031395;28;20435;-78
2020/12/25 05:02:23;;;;;;;1.50;1.40;;;1.60;99.90;;;;;;5031210;28;20114;-78
2020/12/25 05:04:48;;;;;;;1.40;1.30;;;1.60;99.90;;;;;;5031416;28;20474;-78
2020/12/25 05:07:14;;;;;;;1.60;1.50;;;1.60;99.90;;;;;;5031183;28;20026;-78
2020/12/25 05:09:40;;;;;;;1.63;1.53;;;1.40;99.90;;;;;;5031145;28;20417;-78
2020/12/25 05:12:10;;;;;;;1.60;1.40;;;1.40;99.90;;;;;;5031296;28;20026;-78
2020/12/25 05:14:41;;;;;;;1.93;1.53;;;1.40;99.90;;;;;;5030407;28;20438;-78
2020/12/25 05:17:10;;;;;;;1.63;1.40;;;1.40;99.90;;;;;;5030893;28;20024;-78
2020/12/25 05:19:40;;;;;;;1.60;1.50;;;1.40;99.90;;;;;;5030869;28;20032;-78
2020/12/25 05:22:06;;;;;;;1.50;1.40;;;1.40;99.90;;;;;;5030543;28;20045;-78
2020/12/25 05:24:37;;;;;;;1.63;1.50;;;1.40;99.90;;;;;;5030424;28;20018;-78
2020/12/25 05:27:09;;;;;;;3.13;1.67;;;1.40;99.90;;;;;;5030656;28;20048;-79
2020/12/25 05:29:37;;;;;;;2.00;1.80;;;1.40;99.90;;;;;;5031076;28;20029;-79
2020/12/25 05:32:04;;;;;;;2.43;2.20;;;1.40;99.90;;;;;;5030752;28;20025;-79
2020/12/25 05:34:33;;;;;;;2.33;2.00;;;1.50;99.90;;;;;;5030966;28;20374;-78
2020/12/25 05:37:00;;;;;;;2.70;2.10;;;1.40;99.90;;;;;;5030775;28;20024;-79
2020/12/25 05:39:38;;;;;;;2.47;2.10;;;1.40;99.90;;;;;;5031034;28;20032;-79
2020/12/25 05:42:08;;;;;;;2.63;2.23;;;1.50;99.90;;;;;;5012990;28;20022;-78
2020/12/25 05:44:44;;;;;;;2.70;2.20;;;1.50;99.90;;;;;;5030551;28;20124;-78
2020/12/25 05:47:13;;;;;;;3.03;2.40;;;1.50;99.90;;;;;;5030457;28;20418;-78
2020/12/25 05:49:38;;;;;;;2.40;2.10;;;1.40;99.90;;;;;;5030598;28;20489;-77
2020/12/25 05:52:04;;;;;;;2.97;2.40;;;1.40;99.90;;;;;;5030596;28;20025;-77
2020/12/25 05:54:31;;;;;;;2.80;2.20;;;1.40;99.90;;;;;;5030369;28;20053;-77
2020/12/25 05:56:58;;;;;;;3.83;2.37;;;1.40;99.90;;;;;;5030585;28;20040;-77
2020/12/25 05:59:28;;;;;;;2.83;2.00;;;1.40;99.90;;;;;;5030225;28;20035;-78
2020/12/25 06:02:02;;;;;;;2.80;2.33;;;1.40;99.90;;;;;;5030433;28;20033;-89
2020/12/25 06:04:30;;;;;;;3.00;2.38;;;1.40;99.90;;;;;;5031008;28;20021;-90
2020/12/25 06:06:56;;;;;;;2.80;2.20;;;1.30;99.90;;;;;;5032015;28;20025;-87
2020/12/25 06:09:34;;;;;;;2.70;2.30;;;1.30;99.90;;;;;;5014503;28;20033;-91
2020/12/25 06:12:00;;;;;;;2.87;2.57;;;1.30;99.90;;;;;;5015541;28;20030;-88
2020/12/25 06:14:26;;;;;;;3.10;2.60;;;1.40;99.90;;;;;;5034699;28;20053;-87
2020/12/25 06:17:14;;;;;;;2.90;2.60;;;1.40;99.90;;;;;;5039210;28;20099;-85
2020/12/25 06:19:44;;;;;;;3.70;2.63;;;1.40;99.90;;;;;;5036742;28;20092;-88
2020/12/25 06:22:21;;;;;;;2.97;2.37;;;1.40;99.90;;;;;;5025375;28;20464;-88
2020/12/25 06:24:49;;;;;;;3.50;2.70;;;1.50;99.90;;;;;;5022198;28;20024;-90
2020/12/25 06:27:15;;;;;;;3.53;2.70;;;1.40;99.90;;;;;;5039358;28;20021;-91
2020/12/25 06:29:44;;;;;;;3.43;2.90;;;1.40;99.90;;;;;;5039666;28;20026;-91
2020/12/25 06:32:11;;;;;;;3.27;2.90;;;1.30;99.90;;;;;;5047824;28;20024;-88
2020/12/25 06:34:48;;;;;;;4.47;2.90;;;1.40;99.90;;;;;;5061017;28;20036;-86
2020/12/25 06:37:15;;;;;;;4.97;3.20;;;1.40;99.90;;;;;;5036414;28;20044;-90
2020/12/25 06:39:47;;;;;;;3.50;3.20;;;1.40;99.90;;;;;;5039739;28;20029;-87
2020/12/25 06:42:13;;;;;;;3.47;3.03;;;1.40;99.90;;;;;;5038093;28;20033;-90
2020/12/25 06:44:47;;;;;;;4.50;2.60;;;1.40;99.90;;;;;;5040355;28;20025;-89
2020/12/25 06:47:26;;;;;;;3.23;2.60;;;1.50;99.90;;;;;;5039048;28;20017;-86
2020/12/25 06:49:52;;;;;;;2.90;2.40;;;1.50;99.90;;;;;;5038667;28;20479;-89
2020/12/25 06:52:29;;;;;;;2.87;2.57;;;1.40;99.90;;;;;;5038352;28;20066;-76
2020/12/25 06:54:56;;;;;;;3.37;2.93;;;1.40;99.90;;;;;;5016280;28;20022;-87
2020/12/25 06:57:27;;;;;;;2.90;2.60;;;1.40;99.90;;;;;;5016164;28;20497;-87
2020/12/25 06:59:56;;;;;;;2.87;2.43;;;1.40;99.90;;;;;;5021297;28;20014;-87
2020/12/25 07:02:23;;;;;;;4.47;2.60;;;1.50;99.90;;;;;;5038410;28;20109;-89
2020/12/25 07:04:50;;;;;;;2.97;2.50;;;1.50;99.90;;;;;;5038687;28;20021;-89
2020/12/25 07:07:19;;;;;;;4.13;3.00;;;1.50;99.90;;;;;;5037817;28;20096;-89
2020/12/25 07:09:47;;;;;;;2.83;2.53;;;1.50;99.90;;;;;;5018996;28;20018;-89
2020/12/25 07:12:19;;;;;;;3.30;3.00;;;1.50;99.90;;;;;;5038702;28;20025;-89
2020/12/25 07:14:44;;;;;;;4.00;3.17;;;1.40;99.90;;;;;;5033371;28;20075;-90
2020/12/25 07:17:10;;;;;;;3.30;3.00;;;1.40;99.90;;;;;;5038400;28;20057;-89
2020/12/25 07:19:37;;;;;;;3.53;2.83;;;1.40;99.90;;;;;;5047715;28;20033;-89
2020/12/25 07:22:07;;;;;;;3.37;3.07;;;1.50;99.90;;;;;;5020400;28;20334;-88
2020/12/25 07:24:37;;;;;;;3.80;3.20;;;1.50;99.90;;;;;;5035740;28;20030;-89
2020/12/25 07:27:02;;;;;;;3.97;3.30;;;1.60;99.90;;;;;;5032616;28;20030;-82
2020/12/25 07:29:28;;;;;;;4.73;3.23;;;1.60;99.90;;;;;;5032692;28;20068;-82
2020/12/25 07:31:54;;;;;;;3.93;3.30;;;1.50;99.90;;;;;;5032330;28;20033;-82
2020/12/25 07:34:24;;;;;;;4.13;3.67;;;1.50;99.90;;;;;;5032440;28;20033;-83
2020/12/25 07:36:52;;;;;;;4.10;3.70;;;1.60;99.90;;;;;;5015067;28;20328;-86
2020/12/25 07:39:18;;;;;;;4.30;3.67;;;1.50;99.90;;;;;;5033370;28;20112;-84
2020/12/25 07:41:44;;;;;;;4.67;3.60;;;1.60;99.90;;;;;;5030612;28;20327;-78
2020/12/25 07:44:10;;;;;;;4.97;3.57;;;1.50;99.90;;;;;;5031802;28;20544;-86
2020/12/25 07:46:37;;;;;;;6.17;3.67;;;1.50;99.90;;;;;;5009441;28;20021;-87
2020/12/25 07:49:03;;;;;;;4.60;3.40;;;1.60;99.90;;;;;;5004774;28;20029;-87
2020/12/25 07:51:29;;;;;;;3.70;3.30;;;1.60;99.90;;;;;;5029156;28;20037;-78
2020/12/25 07:53:56;;;;;;;4.70;3.93;;;1.60;99.90;;;;;;5018961;28;20029;-81
2020/12/25 07:56:23;;;;;;;3.73;3.33;;;1.70;99.90;;;;;;5032866;28;20374;-80
2020/12/25 07:58:50;;;;;;;4.13;3.43;;;1.70;99.90;;;;;;5033096;28;20466;-80
2020/12/25 08:01:18;;;;;;;5.07;3.57;;;1.60;99.90;;;;;;5032902;28;20022;-79
2020/12/25 08:03:43;;;;;;;4.47;3.90;;;1.60;99.90;;;;;;5032310;28;20029;-79
2020/12/25 08:06:15;;;;;;;5.80;3.43;;;1.60;99.90;;;;;;5014634;28;20044;-80
2020/12/25 08:08:57;;;;;;;4.10;3.67;;;1.60;99.90;;;;;;5032705;28;20099;-80
2020/12/25 08:11:24;;;;;;;3.93;3.40;;;1.60;99.90;;;;;;5032289;28;20033;-82
2020/12/25 08:13:52;;;;;;;5.17;3.33;;;1.70;99.90;;;;;;5032639;28;20076;-80
2020/12/25 08:16:18;;;;;;;4.13;3.40;;;1.70;99.90;;;;;;5032633;28;20025;-79
2020/12/25 08:18:47;;;;;;;4.20;3.00;;;1.70;99.90;;;;;;5032737;28;20025;-81
2020/12/25 08:21:13;;;;;;;3.30;3.00;;;1.70;99.90;;;;;;5032604;28;20049;-79
2020/12/25 08:23:38;;;;;;;3.93;3.10;;;1.70;99.90;;;;;;5012782;28;20084;-78
2020/12/25 08:26:04;;;;;;;4.07;3.47;;;1.80;99.90;;;;;;5021586;28;20470;-78
2020/12/25 08:28:31;;;;;;;3.70;3.03;;;1.80;99.90;;;;;;5013394;28;20424;-79
2020/12/25 08:30:58;;;;;;;4.80;3.10;;;1.80;99.90;;;;;;5033174;28;20021;-88
2020/12/25 08:33:27;;;;;;;3.83;3.30;;;1.80;99.90;;;;;;5027793;28;20377;-86
2020/12/25 08:35:54;;;;;;;3.67;3.00;;;1.80;99.90;;;;;;5024805;28;20029;-82
2020/12/25 08:38:20;;;;;;;3.23;2.90;;;1.90;99.90;;;;;;5033805;28;20029;-85
2020/12/25 08:40:47;;;;;;;2.93;2.63;;;1.90;99.90;;;;;;5034084;28;20823;-86
2020/12/25 08:43:17;;;;;;;3.80;3.10;;;1.90;99.90;;;;;;5032475;28;20033;-86
2020/12/25 08:45:59;;;;;;;3.93;3.00;;;1.90;99.90;;;;;;5032367;28;20029;-86
2020/12/25 08:48:25;;;;;;;3.87;2.97;;;2.00;99.90;;;;;;5014635;28;20017;-86
2020/12/25 08:51:04;;;;;;;4.67;3.23;;;2.00;99.90;;;;;;5015522;28;20017;-86
2020/12/25 08:53:30;;;;;;;4.13;2.90;;;2.00;99.90;;;;;;5031619;28;20037;-80
2020/12/25 08:55:55;;;;;;;4.40;3.20;;;2.00;99.90;;;;;;5046488;23;20057;-82
2020/12/25 08:58:23;;;;;;;3.90;2.60;;;2.00;99.90;;;;;;5038925;28;20029;-80
2020/12/25 09:00:59;;;;;;;3.20;2.60;;;2.10;99.90;;;;;;5036343;28;20041;-81
2020/12/25 09:03:41;;;;;;;4.30;2.73;;;2.00;99.90;;;;;;5031874;28;20030;-80
2020/12/25 09:06:08;;;;;;;4.43;3.13;;;2.00;99.90;;;;;;5031131;28;20053;-71
2020/12/25 09:08:34;;;;;;;3.80;3.20;;;2.00;99.90;;;;;;5031241;28;20083;-73
2020/12/25 09:11:00;;;;;;;3.07;2.70;;;2.10;99.90;;;;;;5032172;28;20048;-85
2020/12/25 09:13:26;;;;;;;4.03;2.87;;;2.10;99.90;;;;;;5031725;28;20037;-81
2020/12/25 09:15:51;;;;;;;2.90;2.60;;;2.10;99.90;;;;;;5030684;28;20504;-80
2020/12/25 09:18:17;;;;;;;3.27;2.50;;;2.10;99.90;;;;;;5030803;28;20036;-81
2020/12/25 09:20:43;;;;;;;4.03;2.60;;;2.10;99.90;;;;;;5027910;28;20089;-80
2020/12/25 09:23:09;;;;;;;3.63;2.70;;;2.20;99.90;;;;;;5030143;28;20029;-80
2020/12/25 09:25:34;;;;;;;4.13;2.70;;;2.20;99.90;;;;;;5029762;28;20037;-80
2020/12/25 09:28:00;;;;;;;4.50;2.80;;;2.20;99.90;;;;;;5009131;28;20446;-77
2020/12/25 09:30:25;;;;;;;3.70;2.80;;;2.20;99.90;;;;;;5009953;28;20414;-77
2020/12/25 09:32:51;;;;;;;3.43;2.80;;;2.20;99.90;;;;;;5027006;28;20037;-77
2020/12/25 09:35:16;;;;;;;3.93;2.97;;;2.30;99.90;;;;;;5030479;28;20022;-77
2020/12/25 09:37:42;;;;;;;4.80;2.90;;;2.30;99.90;;;;;;5031090;28;20038;-77
2020/12/25 09:40:07;;;;;;;5.30;3.40;;;2.30;99.90;;;;;;5031270;28;20947;-77
2020/12/25 09:42:33;;;;;;;2.93;2.60;;;2.40;99.90;;;;;;5031127;28;20389;-77
2020/12/25 09:44:59;;;;;;;2.77;2.43;;;2.40;99.90;;;;;;5030959;28;20025;-77
2020/12/25 09:47:24;;;;;;;3.87;2.83;;;2.50;99.90;;;;;;5029928;28;20040;-77
2020/12/25 09:49:50;;;;;;;4.33;2.83;;;2.50;99.90;;;;;;5030765;28;20030;-77
2020/12/25 09:52:15;;;;;;;3.93;2.47;;;2.50;99.90;;;;;;5030726;28;20051;-77
2020/12/25 09:54:41;;;;;;;4.37;2.70;;;2.60;99.90;;;;;;5030635;28;20393;-78
2020/12/25 09:57:06;;;;;;;3.30;2.90;;;2.70;99.90;;;;;;5012161;28;20037;-77
2020/12/25 09:59:32;;;;;;;4.60;2.60;;;2.80;99.90;;;;;;5009682;28;20111;-79
2020/12/25 10:01:57;;;;;;;3.30;2.57;;;2.60;99.90;;;;;;5025622;28;20025;-77
2020/12/25 10:04:23;;;;;;;4.37;2.77;;;2.80;99.90;;;;;;5036067;28;20084;-77
2020/12/25 10:06:55;;;;;;;3.43;2.87;;;2.80;99.90;;;;;;5022013;28;20032;-80
2020/12/25 10:09:21;;;;;;;2.90;2.60;;;2.80;99.90;;;;;;5020769;28;20057;-79
2020/12/25 10:11:47;;;;;;;3.30;2.53;;;2.80;99.90;;;;;;5030796;28;20126;-81
2020/12/25 10:14:13;;;;;;;2.77;2.47;;;2.90;99.90;;;;;;5027922;28;20041;-80
2020/12/25 10:16:38;;;;;;;4.33;2.70;;;2.90;99.90;;;;;;5029509;28;20052;-80
2020/12/25 10:19:04;;;;;;;3.67;2.60;;;3.00;99.90;;;;;;5031119;28;20363;-81
2020/12/25 10:21:30;;;;;;;2.73;2.20;;;3.00;99.90;;;;;;5030318;28;20375;-82
2020/12/25 10:23:55;;;;;;;2.80;2.53;;;3.00;99.90;;;;;;5030129;28;20020;-82
2020/12/25 10:26:21;;;;;;;3.43;2.40;;;3.00;99.90;;;;;;5011595;28;20541;-81
2020/12/25 10:28:46;;;;;;;2.10;1.90;;;3.10;99.90;;;;;;5029977;28;20096;-81
2020/12/25 10:31:12;;;;;;;2.57;2.00;;;3.20;99.90;;;;;;5029640;28;20053;-81
2020/12/25 10:33:41;;;;;;;2.57;2.10;;;3.30;99.90;;;;;;5012262;28;20147;-81
2020/12/25 10:36:06;;;;;;;2.53;1.60;;;3.30;99.90;;;;;;5029101;28;20078;-81
2020/12/25 10:38:32;;;;;;;3.10;2.10;;;3.30;99.90;;;;;;5028686;28;20101;-81
2020/12/25 10:40:58;;;;;;;2.53;1.67;;;3.30;99.90;;;;;;5029741;28;20086;-81
2020/12/25 10:43:23;;;;;;;2.30;1.90;;;3.30;99.90;;;;;;5029039;28;20041;-81
2020/12/25 10:45:49;;;;;;;2.10;1.90;;;3.20;99.90;;;;;;5029441;28;20024;-81
2020/12/25 10:48:14;;;;;;;2.00;1.80;;;3.20;99.90;;;;;;5028028;28;20026;-81
2020/12/25 10:50:40;;;;;;;3.13;2.30;;;3.20;99.90;;;;;;5029499;28;20033;-81
2020/12/25 10:53:05;;;;;;;3.87;2.30;;;3.10;99.90;;;;;;5029394;28;20025;-81
2020/12/25 10:55:31;;;;;;;3.60;2.17;;;3.20;99.90;;;;;;5029274;28;21706;-80
2020/12/25 10:57:57;;;;;;;2.83;2.27;;;3.10;99.90;;;;;;5031413;28;20474;-81
2020/12/25 11:00:22;;;;;;;3.03;2.10;;;3.10;99.90;;;;;;5031436;28;20121;-81
2020/12/25 11:02:48;;;;;;;3.47;2.77;;;3.10;99.90;;;;;;5032997;28;20044;-81
2020/12/25 11:05:16;;;;;;;2.77;2.47;;;3.10;99.90;;;;;;5032962;28;20024;-81
2020/12/25 11:07:43;;;;;;;3.20;2.40;;;3.10;99.90;;;;;;5015272;28;20028;-81
2020/12/25 11:10:08;;;;;;;2.70;2.10;;;3.00;99.90;;;;;;5031921;28;20014;-81
2020/12/25 11:12:34;;;;;;;3.83;2.47;;;3.00;99.90;;;;;;5014167;28;20441;-81
2020/12/25 11:14:59;;;;;;;3.13;2.60;;;3.10;99.90;;;;;;5032212;28;20416;-79
2020/12/25 11:17:25;;;;;;;3.47;2.50;;;3.00;99.90;;;;;;5033218;28;20543;-78
2020/12/25 11:19:55;;;;;;;3.43;2.73;;;3.00;99.90;;;;;;5032704;28;20026;-79
2020/12/25 11:22:21;;;;;;;5.60;3.30;;;2.90;99.90;;;;;;5013880;28;20108;-78
2020/12/25 11:24:47;;;;;;;3.23;2.80;;;3.00;99.90;;;;;;5033008;28;20033;-79
2020/12/25 11:27:13;;;;;;;4.00;3.07;;;3.00;99.90;;;;;;5032706;28;20430;-78
2020/12/25 11:29:38;;;;;;;4.17;2.90;;;3.00;99.90;;;;;;5032868;28;20021;-80
2020/12/25 11:32:04;;;;;;;3.60;3.10;;;3.00;99.90;;;;;;5032878;28;20836;-79
2020/12/25 11:34:29;;;;;;;4.07;3.50;;;3.00;99.90;;;;;;5033062;28;20226;-77
2020/12/25 11:36:55;;;;;;;4.60;3.57;;;3.00;99.90;;;;;;5033040;28;20037;-78
2020/12/25 11:39:21;;;;;;;4.20;3.47;;;3.00;99.90;;;;;;5023013;28;20083;-77
2020/12/25 11:41:46;;;;;;;4.57;3.40;;;3.00;99.90;;;;;;5029508;28;20029;-77
2020/12/25 11:44:12;;;;;;;5.00;3.87;;;3.10;99.90;;;;;;5031884;28;20033;-77
2020/12/25 11:46:37;;;;;;;4.70;3.77;;;3.00;99.90;;;;;;5033789;28;20454;-77
2020/12/25 11:49:07;;;;;;;5.10;3.83;;;3.00;99.90;;;;;;5033659;28;20466;-78
2020/12/25 11:51:33;;;;;;;5.23;3.97;;;3.00;99.90;;;;;;5019396;28;20044;-79
2020/12/25 11:53:59;;;;;;;5.53;3.80;;;3.00;99.90;;;;;;5032341;28;20025;-78
2020/12/25 11:56:29;;;;;;;4.93;3.90;;;3.00;99.90;;;;;;5031886;28;20048;-78
2020/12/25 11:58:59;;;;;;;6.10;4.43;;;3.00;99.90;;;;;;5032441;28;20021;-80
2020/12/25 12:01:24;;;;;;;6.10;4.87;;;3.00;99.90;;;;;;5014575;28;20029;-79
2020/12/25 12:03:50;;;;;;;6.70;4.37;;;3.00;99.90;;;;;;5012011;28;20044;-78
2020/12/25 12:06:22;;;;;;;4.80;4.10;;;2.90;99.90;;;;;;5025918;28;20054;-71
2020/12/25 12:08:49;;;;;;;5.83;4.27;;;3.00;99.90;;;;;;5031079;28;20036;-78
2020/12/25 12:11:14;;;;;;;4.93;4.13;;;3.00;99.90;;;;;;5031472;28;20028;-79
2020/12/25 12:13:40;;;;;;;5.83;4.17;;;2.90;99.90;;;;;;5031848;28;20033;-79
2020/12/25 12:16:12;;;;;;;4.87;3.90;;;2.90;99.90;;;;;;5006713;28;20030;-78
2020/12/25 12:18:38;;;;;;;5.67;4.37;;;2.90;99.90;;;;;;5028445;28;20096;-79
2020/12/25 12:21:03;;;;;;;5.27;4.27;;;2.90;99.90;;;;;;5030471;28;20068;-77
2020/12/25 12:23:29;;;;;;;6.50;4.17;;;2.90;99.90;;;;;;5005506;28;20057;-78
2020/12/25 12:25:54;;;;;;;5.87;4.50;;;2.80;99.90;;;;;;5006910;28;20018;-78
2020/12/25 12:28:20;;;;;;;6.53;5.00;;;2.80;99.90;;;;;;5031174;28;20046;-79
2020/12/25 12:30:47;;;;;;;6.07;4.87;;;2.80;99.90;;;;;;5006908;28;20018;-78
2020/12/25 12:33:13;;;;;;;5.87;4.80;;;2.80;99.90;;;;;;5030477;28;20048;-86
2020/12/25 12:35:39;;;;;;;7.73;5.07;;;2.80;99.90;;;;;;5034947;28;20163;-85
2020/12/25 12:38:05;;;;;;;6.83;5.17;;;2.80;99.90;;;;;;5034522;28;20517;-85
2020/12/25 12:40:30;;;;;;;6.37;4.63;;;2.90;99.90;;;;;;5027536;28;20037;-85
2020/12/25 12:42:56;;;;;;;6.40;5.37;;;2.90;99.90;;;;;;5014065;28;20038;-78
2020/12/25 12:45:22;;;;;;;7.10;4.60;;;2.90;99.90;;;;;;5031857;28;20057;-77
2020/12/25 12:47:47;;;;;;;5.47;4.60;;;2.90;99.90;;;;;;5010915;28;20022;-77
2020/12/25 12:50:13;;;;;;;5.10;4.33;;;2.90;99.90;;;;;;5031798;28;20021;-77
2020/12/25 12:52:38;;;;;;;5.93;4.63;;;2.90;99.90;;;;;;5031398;28;20568;-78
2020/12/25 12:55:04;;;;;;;5.30;4.33;;;2.90;99.90;;;;;;5032005;28;20038;-79